Time;durP1;ratioP1;P1;durP2;ratioP2;P2;SDS_P1;SDS_P2;PMS_P1;PMS_P2;Temp;Humidity;BMP_temperature;BMP_pressure;BME280_temperature;BME280_humidity;BME280_pressure;Samples;Min_cycle;Max_cycle;Signal;HPM_P1;HPM_P2
2021/10/11 00:01:56;;;;;;;15.40;9.40;;;;;;;7.28;34.75;101560.20;117319;1185;23544;-59
2021/10/11 00:04:25;;;;;;;17.40;8.60;;;;;;;7.27;34.77;101558.27;117358;1185;21830;-60
2021/10/11 00:06:54;;;;;;;18.00;7.80;;;;;;;7.26;34.79;101553.70;117344;1183;22833;-59
2021/10/11 00:09:22;;;;;;;19.40;8.10;;;;;;;7.26;34.98;101551.61;117315;1185;21908;-60
2021/10/11 00:12:00;;;;;;;12.90;7.30;;;;;;;7.25;34.86;101547.56;117385;1185;23576;-60
2021/10/11 00:14:47;;;;;;;14.20;8.20;;;;;;;7.22;34.94;101547.34;117317;1182;23576;-59
2021/10/11 00:17:17;;;;;;;17.20;8.10;;;;;;;7.22;34.81;101549.08;117471;1185;23607;-60
2021/10/11 00:19:50;;;;;;;13.20;7.30;;;;;;;7.22;34.90;101550.48;117330;1183;23551;-60
2021/10/11 00:22:23;;;;;;;14.50;7.80;;;;;;;7.21;34.96;101547.33;117271;1184;23525;-60
2021/10/11 00:25:11;;;;;;;15.70;8.10;;;;;;;7.21;34.95;101545.04;117274;1189;21858;-60
2021/10/11 00:27:40;;;;;;;15.00;8.50;;;;;;;7.20;35.19;101538.57;117295;1186;21857;-59
2021/10/11 00:30:11;;;;;;;15.50;7.60;;;;;;;7.19;35.01;101536.98;117265;1183;23448;-60
2021/10/11 00:32:41;;;;;;;13.60;7.70;;;;;;;7.19;35.14;101536.09;117317;1185;21867;-59
2021/10/11 00:35:10;;;;;;;15.10;8.20;;;;;;;7.18;35.07;101532.94;117360;1185;22093;-60
2021/10/11 00:37:38;;;;;;;13.50;8.00;;;;;;;7.18;35.00;101537.48;117357;1185;22912;-59
2021/10/11 00:40:08;;;;;;;20.00;8.60;;;;;;;7.18;34.86;101537.30;117348;1183;23542;-59
2021/10/11 00:42:36;;;;;;;15.90;8.70;;;;;;;7.18;35.37;101530.66;117376;1186;21919;-60
2021/10/11 00:45:05;;;;;;;16.10;8.60;;;;;;;7.19;35.29;101532.42;117376;1185;23541;-59
2021/10/11 00:47:33;;;;;;;15.30;8.70;;;;;;;7.20;34.77;101528.80;117324;1185;21863;-60
2021/10/11 00:50:01;;;;;;;12.50;8.10;;;;;;;7.21;35.29;101531.78;117267;1185;21848;-59
2021/10/11 00:52:31;;;;;;;14.30;8.60;;;;;;;7.21;35.26;101531.27;117390;1185;21858;-59
2021/10/11 00:54:59;;;;;;;17.90;8.70;;;;;;;7.20;35.38;101527.39;117346;1183;23555;-59
2021/10/11 00:57:28;;;;;;;17.00;8.90;;;;;;;7.21;35.35;101522.87;117323;1184;22932;-60
2021/10/11 00:59:56;;;;;;;17.10;9.00;;;;;;;7.23;35.23;101525.02;117347;1182;23547;-59
2021/10/11 01:02:24;;;;;;;16.60;8.50;;;;;;;7.21;35.37;101520.78;117327;1180;21853;-60
2021/10/11 01:04:53;;;;;;;15.60;9.10;;;;;;;7.21;35.38;101521.12;117325;1185;23563;-60
2021/10/11 01:07:21;;;;;;;16.30;9.00;;;;;;;7.20;35.36;101521.45;117297;1189;21857;-59
2021/10/11 01:09:49;;;;;;;18.80;9.30;;;;;;;7.19;35.24;101514.63;117339;1182;23547;-59
2021/10/11 01:12:17;;;;;;;15.70;9.30;;;;;;;7.18;35.11;101509.02;117319;1186;22015;-59
2021/10/11 01:14:45;;;;;;;17.30;8.60;;;;;;;7.17;35.47;101507.09;117269;1182;22291;-59
2021/10/11 01:17:15;;;;;;;17.40;9.20;;;;;;;7.16;35.34;101504.09;117318;1184;23547;-59
2021/10/11 01:19:52;;;;;;;19.70;8.70;;;;;;;7.14;35.43;101507.73;117314;1183;21860;-59
2021/10/11 01:22:20;;;;;;;18.00;9.60;;;;;;;7.11;35.21;101504.17;117355;1182;22925;-60
2021/10/11 01:24:48;;;;;;;16.60;9.00;;;;;;;7.07;35.38;101501.64;117330;1182;23534;-59
2021/10/11 01:27:17;;;;;;;18.40;9.50;;;;;;;7.05;35.25;101499.52;117345;1185;21865;-59
2021/10/11 01:29:45;;;;;;;16.40;8.90;;;;;;;7.02;35.30;101498.08;117335;1185;23560;-59
2021/10/11 01:32:13;;;;;;;17.00;9.80;;;;;;;6.99;35.43;101495.21;117339;1185;22864;-59
2021/10/11 01:34:42;;;;;;;14.80;8.80;;;;;;;6.97;35.45;101490.63;117333;1183;23560;-59
2021/10/11 01:37:10;;;;;;;13.80;8.20;;;;;;;6.93;35.34;101488.98;117304;1182;21914;-59
2021/10/11 01:39:39;;;;;;;19.00;10.20;;;;;;;6.91;35.38;101491.89;117350;1185;23602;-57
2021/10/11 01:42:07;;;;;;;15.10;8.60;;;;;;;6.88;35.60;101491.83;117348;1184;21864;-60
2021/10/11 01:44:37;;;;;;;15.40;8.50;;;;;;;6.86;35.65;101490.23;117296;1185;23442;-60
2021/10/11 01:47:05;;;;;;;16.10;8.20;;;;;;;6.86;35.43;101485.34;117200;1186;23586;-60
2021/10/11 01:49:34;;;;;;;13.90;8.10;;;;;;;6.85;35.55;101483.05;117433;1182;23545;-59
2021/10/11 01:52:02;;;;;;;15.90;8.80;;;;;;;6.85;35.61;101481.65;117335;1185;24204;-59
2021/10/11 01:54:32;;;;;;;17.00;8.80;;;;;;;7.27;35.07;101477.05;117316;1182;23570;-60
2021/10/11 01:57:00;;;;;;;15.50;7.50;;;;;;;6.95;35.39;101471.05;117371;1182;21863;-60
2021/10/11 01:59:28;;;;;;;14.40;8.10;;;;;;;6.88;35.40;101471.27;117353;1186;23545;-60
2021/10/11 02:01:56;;;;;;;16.30;8.50;;;;;;;6.86;35.76;101473.30;117331;1182;23541;-59
2021/10/11 02:04:25;;;;;;;20.10;7.90;;;;;;;6.87;35.54;101474.53;117341;1182;23563;-59
2021/10/11 02:06:53;;;;;;;12.70;7.70;;;;;;;6.88;35.65;101470.36;117353;1181;22915;-59
2021/10/11 02:09:21;;;;;;;13.40;7.80;;;;;;;6.89;35.48;101468.46;117486;1184;23544;-59
2021/10/11 02:11:50;;;;;;;14.20;7.80;;;;;;;6.90;35.65;101464.13;117353;1184;22922;-60
2021/10/11 02:14:18;;;;;;;15.30;8.20;;;;;;;6.90;35.63;101456.98;117366;1182;23542;-59
2021/10/11 02:16:47;;;;;;;13.30;7.20;;;;;;;6.89;35.75;101454.69;117293;1184;23582;-59
2021/10/11 02:19:15;;;;;;;15.70;7.40;;;;;;;6.88;35.69;101455.88;117333;1186;22314;-59
2021/10/11 02:21:43;;;;;;;14.60;8.60;;;;;;;6.87;35.59;101456.91;117299;1182;22622;-60
2021/10/11 02:24:11;;;;;;;13.70;7.00;;;;;;;6.86;35.74;101456.72;117302;1182;23452;-60
2021/10/11 02:26:40;;;;;;;13.60;7.30;;;;;;;6.85;35.64;101450.25;117331;1182;22084;-59
2021/10/11 02:29:09;;;;;;;12.30;7.50;;;;;;;6.85;35.93;101448.52;117346;1185;21861;-59
2021/10/11 02:31:37;;;;;;;11.40;7.00;;;;;;;6.85;35.63;101445.73;117292;1185;21941;-59
2021/10/11 02:34:05;;;;;;;13.90;7.60;;;;;;;6.84;35.77;101445.35;117256;1180;21855;-60
2021/10/11 02:36:35;;;;;;;14.20;7.10;;;;;;;6.84;35.60;101446.40;117288;1189;23620;-59
2021/10/11 02:39:04;;;;;;;12.60;7.90;;;;;;;6.83;35.71;101443.77;117333;1182;23545;-60
2021/10/11 02:41:32;;;;;;;14.60;7.50;;;;;;;6.81;35.70;101440.95;117367;1183;21863;-59
2021/10/11 02:44:01;;;;;;;19.00;7.60;;;;;;;6.80;35.80;101440.56;117376;1185;23570;-60
2021/10/11 02:46:29;;;;;;;12.80;7.10;;;;;;;6.79;35.62;101438.98;117383;1185;21856;-59
2021/10/11 02:48:57;;;;;;;12.00;6.90;;;;;;;6.79;35.61;101429.38;117376;1185;21859;-59
2021/10/11 02:51:25;;;;;;;11.20;7.00;;;;;;;6.77;35.66;101427.77;117383;1183;23543;-60
2021/10/11 02:53:53;;;;;;;12.20;7.60;;;;;;;6.76;35.73;101432.28;117277;1185;21902;-60
2021/10/11 02:56:22;;;;;;;15.40;7.50;;;;;;;6.74;35.70;101432.77;117322;1188;22648;-59
2021/10/11 02:58:50;;;;;;;14.50;7.90;;;;;;;6.72;35.88;101425.91;117311;1185;23569;-59
2021/10/11 03:01:18;;;;;;;16.10;7.70;;;;;;;6.69;35.82;101420.11;117310;1182;23566;-60
2021/10/11 03:03:46;;;;;;;12.20;6.80;;;;;;;6.68;35.77;101416.77;117325;1184;24207;-48
2021/10/11 03:06:14;;;;;;;16.10;7.70;;;;;;;6.66;35.72;101416.71;117315;1185;24145;-60
2021/10/11 03:08:43;;;;;;;15.40;7.70;;;;;;;6.63;35.92;101415.62;117308;1182;23567;-48
2021/10/11 03:11:11;;;;;;;13.80;7.70;;;;;;;6.61;36.01;101415.23;117350;1185;23542;-48
2021/10/11 03:13:40;;;;;;;15.10;8.00;;;;;;;6.59;35.82;101416.59;117379;1185;23544;-49
2021/10/11 03:16:08;;;;;;;18.40;7.00;;;;;;;6.59;36.06;101416.76;117350;1181;23554;-48
2021/10/11 03:18:37;;;;;;;12.40;6.80;;;;;;;6.58;35.91;101418.83;117294;1185;21988;-48
2021/10/11 03:21:05;;;;;;;16.70;7.30;;;;;;;6.55;35.86;101421.75;117326;1186;23464;-48
2021/10/11 03:23:34;;;;;;;13.90;7.20;;;;;;;6.55;36.09;101421.05;117280;1185;23547;-48
2021/10/11 03:26:02;;;;;;;12.40;7.00;;;;;;;6.53;35.91;101423.96;117258;1185;21863;-48
2021/10/11 03:28:30;;;;;;;11.70;7.00;;;;;;;6.52;35.96;101428.14;117256;1186;22906;-48
2021/10/11 03:30:58;;;;;;;13.00;7.20;;;;;;;6.52;36.05;101420.80;117371;1183;22909;-48
2021/10/11 03:33:27;;;;;;;11.90;7.30;;;;;;;6.50;36.06;101419.19;117359;1185;21870;-49
2021/10/11 03:35:55;;;;;;;19.50;8.30;;;;;;;6.48;35.99;101424.89;117342;1188;21856;-49
2021/10/11 03:38:24;;;;;;;16.00;8.10;;;;;;;6.45;36.06;101419.60;117311;1183;21917;-48
2021/10/11 03:40:52;;;;;;;24.70;8.80;;;;;;;6.43;35.92;101418.15;117357;1183;22836;-48
2021/10/11 03:43:20;;;;;;;18.20;8.70;;;;;;;6.39;35.85;101414.44;117449;1185;23570;-48
2021/10/11 03:45:51;;;;;;;14.90;7.40;;;;;;;6.35;36.09;101413.48;117244;1182;23621;-48
2021/10/11 03:48:19;;;;;;;13.20;7.90;;;;;;;6.31;36.22;101417.23;117236;1182;21858;-48
2021/10/11 03:50:48;;;;;;;15.40;8.20;;;;;;;6.28;36.23;101418.02;117274;1182;23554;-48
2021/10/11 03:53:16;;;;;;;19.30;8.10;;;;;;;6.26;36.04;101420.95;117306;1182;21881;-48
2021/10/11 03:55:45;;;;;;;17.90;7.30;;;;;;;6.25;36.22;101419.70;117339;1185;22919;-48
2021/10/11 03:58:13;;;;;;;17.50;7.80;;;;;;;6.24;36.18;101415.66;117337;1183;22825;-47
2021/10/11 04:00:41;;;;;;;15.70;8.80;;;;;;;6.23;36.53;101411.65;117403;1183;23544;-47
2021/10/11 04:03:10;;;;;;;30.40;15.40;;;;;;;6.24;36.45;101407.64;118535;1183;22136;-48
2021/10/11 04:05:38;;;;;;;27.80;16.70;;;;;;;6.26;36.16;101399.66;119406;1182;21813;-48
2021/10/11 04:08:19;;;;;;;20.70;11.20;;;;;;;6.28;36.35;101397.27;117380;1185;23586;-47
2021/10/11 04:11:09;;;;;;;18.10;8.90;;;;;;;6.29;36.21;101392.42;117322;1185;22818;-47
2021/10/11 04:13:38;;;;;;;18.70;9.10;;;;;;;6.33;36.63;101387.79;117324;1185;23569;-47
2021/10/11 04:16:06;;;;;;;18.00;9.60;;;;;;;6.38;36.83;101385.30;117332;1186;21858;-48
2021/10/11 04:18:35;;;;;;;22.60;8.80;;;;;;;6.45;36.41;101385.77;117339;1185;23559;-48
2021/10/11 04:21:03;;;;;;;17.30;8.10;;;;;;;6.49;36.67;101388.14;117375;1183;23606;-48
2021/10/11 04:23:32;;;;;;;21.30;8.20;;;;;;;6.54;36.67;101391.71;117335;1185;24143;-48
2021/10/11 04:26:00;;;;;;;14.60;8.00;;;;;;;6.59;36.44;101393.91;117301;1183;22632;-48
2021/10/11 04:28:28;;;;;;;16.60;8.80;;;;;;;6.64;36.50;101394.18;117259;1185;21867;-48
2021/10/11 04:30:56;;;;;;;13.10;7.60;;;;;;;6.68;36.68;101394.95;117340;1182;23478;-48
2021/10/11 04:33:24;;;;;;;13.00;7.60;;;;;;;6.74;36.75;101393.17;117373;1183;23544;-47
2021/10/11 04:35:53;;;;;;;17.30;7.90;;;;;;;6.78;36.70;101388.70;117394;1184;21860;-47
2021/10/11 04:38:21;;;;;;;18.00;8.70;;;;;;;6.82;36.45;101383.90;117346;1183;21858;-47
2021/10/11 04:40:49;;;;;;;18.90;9.30;;;;;;;6.84;36.52;101380.45;117372;1184;23544;-48
2021/10/11 04:43:18;;;;;;;19.80;8.60;;;;;;;6.89;36.46;101382.27;117088;1186;21865;-48
2021/10/11 04:45:46;;;;;;;18.30;8.50;;;;;;;6.92;36.68;101382.71;117335;1185;23570;-47
2021/10/11 04:48:14;;;;;;;16.40;7.60;;;;;;;6.97;36.91;101380.35;117294;1183;23552;-48
2021/10/11 04:50:43;;;;;;;17.30;7.60;;;;;;;7.04;36.90;101374.88;117411;1186;23567;-47
2021/10/11 04:53:11;;;;;;;13.00;6.90;;;;;;;7.10;36.93;101375.70;117348;1185;23545;-48
2021/10/11 04:55:40;;;;;;;22.10;7.30;;;;;;;7.19;36.72;101377.42;117337;1184;23442;-48
2021/10/11 04:58:08;;;;;;;17.40;7.50;;;;;;;7.25;37.07;101374.91;117331;1183;23590;-47
2021/10/11 05:00:37;;;;;;;16.70;8.00;;;;;;;7.31;36.87;101377.61;117407;1183;21895;-48
2021/10/11 05:03:05;;;;;;;13.40;6.80;;;;;;;7.38;37.03;101383.85;117231;1185;21851;-48
2021/10/11 05:05:34;;;;;;;13.40;6.80;;;;;;;7.44;37.12;101389.36;117293;1182;23904;-48
2021/10/11 05:08:03;;;;;;;12.60;7.20;;;;;;;7.50;37.19;101386.67;117539;1184;21845;-48
2021/10/11 05:10:33;;;;;;;16.70;7.50;;;;;;;7.55;37.24;101388.33;117313;1185;21892;-48
2021/10/11 05:13:01;;;;;;;12.30;6.80;;;;;;;7.61;37.23;101391.73;117379;1186;23465;-48
2021/10/11 05:15:29;;;;;;;16.30;8.50;;;;;;;7.67;37.14;101392.72;117383;1185;23532;-48
2021/10/11 05:17:57;;;;;;;13.80;7.40;;;;;;;7.75;37.13;101394.06;117329;1184;22909;-49
2021/10/11 05:20:26;;;;;;;11.80;6.90;;;;;;;7.85;37.05;101391.23;117404;1185;21889;-48
2021/10/11 05:22:55;;;;;;;18.30;7.70;;;;;;;7.95;37.14;101390.16;117354;1184;22717;-48
2021/10/11 05:25:26;;;;;;;15.50;7.90;;;;;;;8.05;37.19;101383.84;117353;1184;23627;-48
2021/10/11 05:27:54;;;;;;;14.50;7.90;;;;;;;8.15;37.13;101383.64;117247;1185;22916;-47
2021/10/11 05:30:23;;;;;;;13.00;8.00;;;;;;;8.26;37.32;101388.15;117414;1184;23547;-48
2021/10/11 05:32:52;;;;;;;13.10;7.80;;;;;;;8.37;37.45;101385.48;117412;1182;23550;-48
2021/10/11 05:35:20;;;;;;;16.90;8.40;;;;;;;8.49;37.39;101382.34;117328;1185;21858;-48
2021/10/11 05:37:48;;;;;;;15.70;8.20;;;;;;;8.62;37.45;101380.06;117354;1185;23624;-48
2021/10/11 05:40:17;;;;;;;13.50;7.80;;;;;;;9.09;37.05;101375.45;117346;1185;23438;-49
2021/10/11 05:42:45;;;;;;;16.80;7.80;;;;;;;9.99;36.07;101362.87;117358;1184;23580;-48
2021/10/11 05:45:14;;;;;;;14.80;7.40;;;;;;;9.94;36.31;101361.43;117360;1184;23566;-48
2021/10/11 05:47:42;;;;;;;14.10;7.60;;;;;;;9.45;37.46;101365.30;117342;1182;21928;-48
2021/10/11 05:50:11;;;;;;;18.60;8.50;;;;;;;9.95;36.92;101364.06;117434;1185;23650;-48
2021/10/11 05:52:39;;;;;;;35.40;16.20;;;;;;;9.68;37.44;101366.35;117396;1182;23646;-48
2021/10/11 05:55:08;;;;;;;21.70;11.10;;;;;;;9.73;37.66;101366.38;117372;1182;22905;-48
2021/10/11 05:57:37;;;;;;;17.90;9.80;;;;;;;9.84;37.66;101363.30;117369;1181;22905;-49
2021/10/11 06:00:06;;;;;;;34.80;17.40;;;;;;;9.94;37.60;101360.73;117350;1185;23550;-48
2021/10/11 06:02:34;;;;;;;205.00;94.70;;;;;;;10.08;37.75;101356.96;117271;1182;22819;-48
2021/10/11 06:05:03;;;;;;;118.10;54.40;;;;;;;10.24;37.78;101351.59;117309;1186;23542;-49
2021/10/11 06:07:32;;;;;;;540.80;306.60;;;;;;;10.41;37.95;101347.30;117401;1183;21866;-49
2021/10/11 06:10:00;;;;;;;290.60;141.30;;;;;;;10.68;37.69;101348.64;117320;1183;23560;-50
2021/10/11 06:12:29;;;;;;;186.10;93.80;;;;;;;11.04;37.73;101349.23;117307;1182;23587;-50
2021/10/11 06:14:59;;;;;;;118.70;59.30;;;;;;;11.35;37.38;101351.00;117309;1187;23553;-49
2021/10/11 06:17:27;;;;;;;290.70;151.80;;;;;;;11.22;37.78;101352.95;117373;1182;23451;-50
2021/10/11 06:19:55;;;;;;;150.20;76.90;;;;;;;11.89;37.19;101351.83;117403;1185;23557;-50
2021/10/11 06:22:24;;;;;;;73.20;37.70;;;;;;;12.49;36.54;101345.67;117390;1184;21855;-50
2021/10/11 06:24:54;;;;;;;46.30;26.20;;;;;;;12.76;36.39;101345.02;117325;1185;21873;-50
2021/10/11 06:27:22;;;;;;;57.70;31.10;;;;;;;12.95;36.47;101344.89;117344;1182;21869;-51
2021/10/11 06:29:50;;;;;;;35.40;19.40;;;;;;;13.16;36.13;101341.57;117353;1185;23547;-50
2021/10/11 06:32:18;;;;;;;29.50;16.30;;;;;;;13.28;36.11;101339.71;117341;1186;23545;-50
2021/10/11 06:34:47;;;;;;;98.40;41.80;;;;;;;13.43;36.10;101340.31;117350;1187;23624;-49
2021/10/11 06:37:15;;;;;;;47.50;23.20;;;;;;;12.94;37.11;101336.10;117318;1181;24267;-50
2021/10/11 06:39:44;;;;;;;29.40;15.50;;;;;;;12.96;37.19;101334.48;117273;1185;23546;-50
2021/10/11 06:42:12;;;;;;;29.00;14.10;;;;;;;12.89;37.41;101331.02;117281;1186;21899;-49
2021/10/11 06:44:42;;;;;;;117.20;51.50;;;;;;;12.93;37.73;101333.09;117296;1182;23548;-50
2021/10/11 06:47:10;;;;;;;122.50;50.60;;;;;;;13.09;37.56;101327.52;117316;1185;23566;-50
2021/10/11 06:49:39;;;;;;;45.90;22.60;;;;;;;13.27;37.65;101330.91;117323;1185;23547;-49
2021/10/11 06:52:09;;;;;;;45.00;22.00;;;;;;;13.49;37.76;101333.21;117344;1185;22808;-50
2021/10/11 06:54:40;;;;;;;34.20;19.20;;;;;;;13.74;37.80;101335.45;117322;1185;23374;-52
2021/10/11 06:57:08;;;;;;;108.80;57.30;;;;;;;13.97;37.90;101332.40;117412;1185;21898;-50
2021/10/11 06:59:38;;;;;;;58.60;32.30;;;;;;;14.21;37.81;101325.21;117323;1183;23675;-51
2021/10/11 07:02:06;;;;;;;234.60;111.60;;;;;;;14.53;37.70;101328.34;117436;1185;21855;-50
2021/10/11 07:04:39;;;;;;;171.20;84.00;;;;;;;14.70;37.75;101323.53;117413;1183;22919;-51
2021/10/11 07:07:07;;;;;;;467.60;228.30;;;;;;;14.93;37.82;101321.63;117293;1186;21878;-51
2021/10/11 07:09:36;;;;;;;461.50;227.30;;;;;;;15.19;37.87;101321.73;117306;1185;22831;-51
2021/10/11 07:12:05;;;;;;;311.80;144.40;;;;;;;15.45;37.86;101316.36;117338;1180;22996;-51
2021/10/11 07:14:34;;;;;;;229.60;112.10;;;;;;;16.20;36.97;101309.98;117329;1186;22835;-51
2021/10/11 07:17:02;;;;;;;549.70;303.80;;;;;;;15.99;37.49;101305.48;117376;1185;23464;-51
2021/10/11 07:19:30;;;;;;;283.30;135.30;;;;;;;16.19;37.68;101304.55;117325;1182;23566;-51
2021/10/11 07:21:58;;;;;;;527.80;307.90;;;;;;;16.45;37.69;101295.64;117306;1185;21861;-51
2021/10/11 07:24:27;;;;;;;447.30;263.60;;;;;;;16.68;37.52;101286.09;117405;1185;23545;-51
2021/10/11 07:26:55;;;;;;;256.90;145.00;;;;;;;16.92;37.51;101283.79;117452;1184;23443;-51
2021/10/11 07:29:24;;;;;;;161.40;92.80;;;;;;;17.13;37.49;101279.55;117351;1185;23547;-52
2021/10/11 07:31:53;;;;;;;96.90;58.80;;;;;;;17.35;37.48;101275.83;117390;1185;23817;-51
2021/10/11 07:34:22;;;;;;;82.40;44.90;;;;;;;17.49;37.24;101273.46;117388;1183;22611;-51
2021/10/11 07:36:50;;;;;;;70.50;37.40;;;;;;;17.57;37.15;101274.67;117379;1185;21857;-51
2021/10/11 07:39:19;;;;;;;81.90;42.30;;;;;;;17.75;37.22;101272.41;117315;1185;23452;-51
2021/10/11 07:41:47;;;;;;;50.10;27.80;;;;;;;17.92;37.07;101271.95;117341;1184;22935;-51
2021/10/11 07:44:15;;;;;;;60.60;32.20;;;;;;;18.07;37.07;101273.30;117273;1183;23547;-51
2021/10/11 07:46:44;;;;;;;496.20;288.00;;;;;;;18.23;37.02;101273.90;117317;1189;22322;-51
2021/10/11 07:49:31;;;;;;;453.40;257.10;;;;;;;18.45;36.96;101268.63;117340;1185;23624;-51
2021/10/11 07:51:59;;;;;;;299.20;158.30;;;;;;;18.70;36.96;101269.29;117294;1185;21862;-52
2021/10/11 07:54:28;;;;;;;123.00;69.70;;;;;;;18.94;37.00;101273.11;117351;1185;21860;-52
2021/10/11 07:56:57;;;;;;;103.70;53.70;;;;;;;19.17;36.85;101275.77;117385;1184;22622;-51
2021/10/11 07:59:28;;;;;;;81.30;44.10;;;;;;;19.36;36.74;101275.66;117466;1184;23531;-52
2021/10/11 08:01:56;;;;;;;55.80;32.00;;;;;;;19.55;36.72;101270.37;117315;1183;22620;-54
2021/10/11 08:04:25;;;;;;;63.10;31.90;;;;;;;19.76;36.64;101259.12;117289;1185;21867;-52
2021/10/11 08:06:53;;;;;;;70.60;35.80;;;;;;;19.99;36.64;101252.23;117357;1185;23544;-52
2021/10/11 08:09:21;;;;;;;51.90;29.40;;;;;;;20.24;36.63;101246.83;117357;1186;23567;-52
2021/10/11 08:11:50;;;;;;;57.50;28.90;;;;;;;20.51;36.56;101243.97;117340;1185;23812;-52
2021/10/11 08:14:18;;;;;;;29.20;17.80;;;;;;;20.73;36.38;101243.27;117343;1187;23432;-52
2021/10/11 08:16:47;;;;;;;23.80;14.10;;;;;;;20.90;36.26;101241.17;117388;1185;21857;-52
2021/10/11 08:19:15;;;;;;;21.80;13.10;;;;;;;21.04;36.07;101241.48;117302;1182;23547;-52
2021/10/11 08:21:43;;;;;;;30.40;16.10;;;;;;;21.17;35.98;101240.55;117334;1184;23500;-52
2021/10/11 08:24:12;;;;;;;34.40;18.80;;;;;;;21.32;35.89;101233.67;117363;1184;23545;-51
2021/10/11 08:26:40;;;;;;;32.40;18.40;;;;;;;21.49;35.81;101226.71;117398;1185;21861;-53
2021/10/11 08:29:08;;;;;;;37.50;19.20;;;;;;;21.67;35.77;101221.80;117317;1184;23544;-51
2021/10/11 08:31:38;;;;;;;43.60;24.80;;;;;;;21.79;35.90;101218.02;117410;1185;23522;-52
2021/10/11 08:34:06;;;;;;;30.00;17.10;;;;;;;21.88;35.80;101219.59;117368;1185;23678;-51
2021/10/11 08:36:37;;;;;;;23.60;15.10;;;;;;;21.97;35.62;101212.94;117354;1182;21862;-52
2021/10/11 08:39:05;;;;;;;22.80;13.40;;;;;;;22.06;35.51;101209.48;117404;1182;23557;-52
2021/10/11 08:41:34;;;;;;;18.30;13.50;;;;;;;22.17;35.57;101205.21;117401;1184;23824;-52
2021/10/11 08:44:02;;;;;;;26.40;15.90;;;;;;;22.26;35.25;101202.98;117323;1182;23847;-52
2021/10/11 08:46:31;;;;;;;20.40;13.70;;;;;;;22.40;35.10;101202.14;117419;1185;21867;-52
2021/10/11 08:48:59;;;;;;;18.60;12.40;;;;;;;22.53;34.99;101200.09;117366;1185;23567;-51
2021/10/11 08:51:28;;;;;;;23.30;13.60;;;;;;;22.64;34.89;101197.58;117411;1185;23570;-52
2021/10/11 08:53:56;;;;;;;22.60;14.50;;;;;;;22.76;34.97;101192.36;117460;1185;23560;-52
2021/10/11 08:56:24;;;;;;;23.90;14.90;;;;;;;22.88;34.94;101193.37;117309;1182;21859;-52
2021/10/11 08:58:52;;;;;;;22.70;12.30;;;;;;;22.97;34.74;101191.64;117338;1185;23547;-52
2021/10/11 09:01:22;;;;;;;20.90;10.80;;;;;;;23.04;34.75;101188.42;117334;1185;21858;-52
2021/10/11 09:03:56;;;;;;;21.60;11.80;;;;;;;23.09;34.59;101187.27;117290;1185;23544;-51
2021/10/11 09:06:24;;;;;;;20.40;12.40;;;;;;;23.16;34.60;101184.75;117243;1186;21919;-52
2021/10/11 09:08:53;;;;;;;22.50;11.30;;;;;;;23.25;34.48;101178.77;117326;1183;21820;-52
2021/10/11 09:11:21;;;;;;;24.30;11.60;;;;;;;23.35;34.35;101174.86;117404;1182;23534;-52
2021/10/11 09:13:51;;;;;;;25.80;15.20;;;;;;;23.47;34.34;101170.26;117388;1176;23444;-52
2021/10/11 09:16:41;;;;;;;26.20;15.40;;;;;;;23.58;34.24;101166.83;117328;1182;23534;-52
2021/10/11 09:19:17;;;;;;;25.10;15.30;;;;;;;23.66;34.14;101161.89;117354;1185;23567;-52
2021/10/11 09:21:45;;;;;;;21.00;14.50;;;;;;;23.68;34.04;101161.58;117339;1183;22974;-52
2021/10/11 09:24:17;;;;;;;18.00;11.70;;;;;;;23.69;33.84;101154.56;117344;1182;23569;-52
2021/10/11 09:26:52;;;;;;;197.80;111.10;;;;;;;23.68;33.74;101154.30;117324;1184;23443;-52
2021/10/11 09:29:33;;;;;;;605.70;389.90;;;;;;;23.68;33.69;101148.91;117326;1182;23548;-52
2021/10/11 09:32:08;;;;;;;702.20;457.20;;;;;;;23.74;33.55;101144.95;117353;1189;21901;-51
2021/10/11 09:34:38;;;;;;;524.40;306.00;;;;;;;23.86;33.65;101143.02;117332;1185;21917;-52
2021/10/11 09:37:12;;;;;;;922.60;598.60;;;;;;;23.97;33.51;101133.27;117362;1185;21855;-53
2021/10/11 09:39:41;;;;;;;633.80;457.60;;;;;;;24.08;33.47;101127.67;117362;1182;21913;-53
2021/10/11 09:42:14;;;;;;;836.00;626.00;;;;;;;24.15;33.47;101122.78;117337;1184;23557;-52
2021/10/11 09:44:55;;;;;;;965.60;666.50;;;;;;;24.16;33.41;101120.59;117376;1182;21876;-52
2021/10/11 09:47:59;;;;;;;478.50;333.90;;;;;;;24.20;33.28;101117.15;117300;1184;21879;-52
2021/10/11 09:50:21;;;;;;;214.60;140.80;;;;;;;24.26;33.20;101108.17;117358;1184;22936;-53
2021/10/11 09:52:49;;;;;;;152.20;103.40;;;;;;;24.29;33.17;101103.88;117393;1185;22909;-52
2021/10/11 09:55:17;;;;;;;145.00;101.20;;;;;;;24.33;33.28;101103.50;117122;1188;23449;-53
2021/10/11 09:57:45;;;;;;;134.00;94.10;;;;;;;24.43;33.27;101103.82;117310;1183;23547;-52
2021/10/11 10:00:14;;;;;;;90.80;63.50;;;;;;;24.49;33.09;101100.41;117327;1182;22704;-52
2021/10/11 10:02:43;;;;;;;53.20;36.40;;;;;;;24.50;33.04;101099.80;117314;1185;23476;-51
2021/10/11 10:05:26;;;;;;;43.10;29.30;;;;;;;24.48;32.85;101092.90;117293;1185;22916;-52
2021/10/11 10:07:56;;;;;;;34.30;23.30;;;;;;;24.48;32.81;101094.19;117328;1182;22900;-52
2021/10/11 10:10:26;;;;;;;20.80;15.50;;;;;;;24.49;32.81;101089.98;117425;1176;23644;-51
2021/10/11 10:12:54;;;;;;;24.50;15.50;;;;;;;24.48;32.64;101088.27;117276;1185;22773;-52
2021/10/11 10:15:31;;;;;;;22.20;14.50;;;;;;;24.48;32.70;101086.64;117351;1185;21863;-51
2021/10/11 10:18:03;;;;;;;19.60;13.50;;;;;;;24.48;32.53;101087.13;117318;1182;21860;-51
2021/10/11 10:20:33;;;;;;;17.00;11.50;;;;;;;24.50;32.44;101087.23;117358;1184;21858;-51
2021/10/11 10:23:01;;;;;;;13.20;10.00;;;;;;;24.50;32.41;101088.46;117305;1183;21934;-52
2021/10/11 10:25:30;;;;;;;28.90;13.80;;;;;;;24.48;32.40;101081.44;117428;1185;21903;-51
2021/10/11 10:28:10;;;;;;;17.70;11.50;;;;;;;24.47;32.39;101078.11;117333;1186;21859;-52
2021/10/11 10:30:38;;;;;;;22.30;13.10;;;;;;;24.46;32.19;101074.36;117301;1185;23557;-52
2021/10/11 10:33:09;;;;;;;56.50;30.40;;;;;;;24.47;32.19;101071.11;117352;1184;23544;-52
2021/10/11 10:35:39;;;;;;;36.10;22.70;;;;;;;24.48;32.04;101066.20;117333;1187;21849;-52
2021/10/11 10:38:16;;;;;;;36.60;22.80;;;;;;;24.47;31.99;101062.46;117324;1186;23557;-52
2021/10/11 10:40:45;;;;;;;25.70;16.10;;;;;;;24.45;31.91;101059.39;117312;1185;21974;-51
2021/10/11 10:43:16;;;;;;;26.00;14.80;;;;;;;24.42;31.93;101054.02;117317;1189;23537;-52
2021/10/11 10:45:45;;;;;;;30.80;17.40;;;;;;;24.42;31.95;101055.10;117324;1182;24290;-51
2021/10/11 10:48:26;;;;;;;27.80;17.10;;;;;;;24.46;31.95;101050.16;117355;1185;23551;-51
2021/10/11 10:50:57;;;;;;;23.20;15.20;;;;;;;24.57;31.87;101045.77;117314;1185;22753;-51
2021/10/11 10:53:28;;;;;;;15.20;10.60;;;;;;;24.61;31.82;101039.40;117325;1184;22923;-52
2021/10/11 10:55:57;;;;;;;15.70;9.80;;;;;;;24.59;31.63;101034.31;117322;1187;21860;-52
2021/10/11 10:58:26;;;;;;;16.20;10.20;;;;;;;24.52;31.61;101038.30;117358;1183;23451;-51
2021/10/11 11:00:54;;;;;;;15.40;9.20;;;;;;;24.40;31.45;101041.35;117369;1182;23566;-52
2021/10/11 11:03:24;;;;;;;18.50;10.20;;;;;;;24.25;31.39;101038.70;117359;1182;23475;-52
2021/10/11 11:05:54;;;;;;;14.80;10.00;;;;;;;24.12;31.27;101035.67;117355;1185;24720;-51
2021/10/11 11:08:42;;;;;;;13.80;10.00;;;;;;;24.01;31.18;101032.03;117354;1185;22922;-52
2021/10/11 11:11:11;;;;;;;17.30;10.50;;;;;;;23.93;31.11;101024.71;117344;1185;23555;-51
2021/10/11 11:13:39;;;;;;;14.80;10.00;;;;;;;23.86;31.00;101024.07;117206;1189;21976;-51
2021/10/11 11:16:08;;;;;;;12.00;8.90;;;;;;;23.79;31.14;101014.98;117299;1184;23440;-51
2021/10/11 11:18:37;;;;;;;15.20;9.80;;;;;;;23.71;31.01;101006.84;117356;1185;23547;-51